Time;durP1;ratioP1;P1;durP2;ratioP2;P2;SDS_P1;SDS_P2;PMS_P1;PMS_P2;Temp;Humidity;BMP_temperature;BMP_pressure;BME280_temperature;BME280_humidity;BME280_pressure;Samples;Min_cycle;Max_cycle;Signal;HPM_P1;HPM_P2
2022/06/24 00:00:48;;;;;;;10.90;5.28;;;19.30;99.90;;;;;;5093559;28;20024;-55
2022/06/24 00:03:19;;;;;;;8.50;4.88;;;19.20;99.90;;;;;;5093280;28;20031;-55
2022/06/24 00:05:48;;;;;;;8.23;4.97;;;19.30;99.90;;;;;;5093506;28;20584;-52
2022/06/24 00:08:15;;;;;;;6.18;5.00;;;19.20;99.90;;;;;;5093099;28;20415;-55
2022/06/24 00:10:43;;;;;;;9.05;5.57;;;19.10;99.90;;;;;;5093203;28;20039;-55
2022/06/24 00:13:08;;;;;;;10.90;5.50;;;19.20;99.90;;;;;;5093209;28;20016;-55
2022/06/24 00:15:36;;;;;;;6.63;5.47;;;19.20;99.90;;;;;;5093192;28;20050;-52
2022/06/24 00:18:15;;;;;;;7.28;6.10;;;19.20;99.90;;;;;;5093249;28;20019;-54
2022/06/24 00:20:46;;;;;;;9.35;5.82;;;19.20;99.90;;;;;;5093085;28;20012;-55
2022/06/24 00:23:14;;;;;;;12.05;5.53;;;19.20;99.90;;;;;;5092839;28;20558;-54
2022/06/24 00:25:41;;;;;;;6.88;4.82;;;19.20;99.90;;;;;;5093012;28;20043;-55
2022/06/24 00:28:11;;;;;;;9.10;4.75;;;19.20;99.90;;;;;;5093094;28;20028;-52
2022/06/24 00:30:56;;;;;;;11.13;5.13;;;19.20;99.90;;;;;;5092558;28;20459;-51
2022/06/24 00:33:24;;;;;;;10.80;5.63;;;19.20;99.90;;;;;;5092347;28;20031;-54
2022/06/24 00:35:52;;;;;;;8.68;4.40;;;19.20;99.90;;;;;;5092307;28;20386;-54
2022/06/24 00:38:22;;;;;;;5.50;4.97;;;19.20;99.90;;;;;;5092610;28;20034;-54
2022/06/24 00:40:50;;;;;;;9.02;5.55;;;19.10;99.90;;;;;;5092575;28;20040;-54
2022/06/24 00:43:26;;;;;;;5.75;4.68;;;19.20;99.90;;;;;;5091174;28;20490;-54
2022/06/24 00:45:56;;;;;;;7.45;5.20;;;19.20;99.90;;;;;;5092641;28;20055;-54
2022/06/24 00:48:24;;;;;;;8.55;5.53;;;19.10;99.90;;;;;;5092428;28;20024;-55
2022/06/24 00:50:50;;;;;;;7.95;5.78;;;18.90;99.90;;;;;;5092651;28;20107;-52
2022/06/24 00:53:16;;;;;;;7.25;6.00;;;18.90;99.90;;;;;;5092245;28;20376;-53
2022/06/24 00:55:42;;;;;;;7.60;5.32;;;18.70;99.90;;;;;;5092262;28;20034;-54
2022/06/24 00:58:13;;;;;;;10.30;5.47;;;18.60;99.90;;;;;;5092442;28;20406;-54
2022/06/24 01:00:44;;;;;;;6.80;6.07;;;18.60;99.90;;;;;;5092119;28;20024;-54
2022/06/24 01:03:11;;;;;;;9.18;6.53;;;18.60;99.90;;;;;;5092258;28;20421;-54
2022/06/24 01:05:37;;;;;;;12.60;6.43;;;18.50;99.90;;;;;;5092342;28;20024;-55
2022/06/24 01:08:08;;;;;;;22.55;6.45;;;18.40;99.90;;;;;;5092231;28;20032;-54
2022/06/24 01:10:35;;;;;;;9.80;5.53;;;18.40;99.90;;;;;;5092023;28;20024;-54
2022/06/24 01:13:01;;;;;;;6.78;6.07;;;18.40;99.90;;;;;;5092227;28;20024;-53
2022/06/24 01:15:27;;;;;;;6.65;6.05;;;18.40;99.90;;;;;;5091871;28;20027;-53
2022/06/24 01:17:53;;;;;;;6.45;5.85;;;18.30;99.90;;;;;;5092077;28;20027;-52
2022/06/24 01:20:19;;;;;;;9.63;5.72;;;18.10;99.90;;;;;;5092026;28;20020;-54
2022/06/24 01:22:44;;;;;;;15.23;6.60;;;18.00;99.90;;;;;;5091919;28;20061;-54
2022/06/24 01:25:11;;;;;;;11.93;6.93;;;18.00;99.90;;;;;;5091973;28;20024;-54
2022/06/24 01:27:38;;;;;;;10.20;6.85;;;18.00;99.90;;;;;;5091737;28;20454;-52
2022/06/24 01:30:05;;;;;;;13.57;7.30;;;18.00;99.90;;;;;;5091535;28;20061;-55
2022/06/24 01:32:31;;;;;;;7.22;6.25;;;18.20;99.90;;;;;;5091525;28;20412;-53
2022/06/24 01:34:56;;;;;;;6.68;6.05;;;18.20;99.90;;;;;;5091675;28;20055;-51
2022/06/24 01:37:23;;;;;;;6.57;5.70;;;18.20;99.90;;;;;;5091596;28;20149;-55
2022/06/24 01:39:49;;;;;;;9.18;6.57;;;18.20;99.90;;;;;;5091701;28;20040;-54
2022/06/24 01:42:15;;;;;;;11.15;6.03;;;18.20;99.90;;;;;;5092039;28;20533;-53
2022/06/24 01:44:40;;;;;;;9.13;5.70;;;18.30;99.90;;;;;;5091524;28;20024;-53
2022/06/24 01:47:06;;;;;;;7.93;6.30;;;18.40;99.90;;;;;;5091686;28;20070;-56
2022/06/24 01:49:32;;;;;;;9.07;6.18;;;18.50;99.90;;;;;;5090403;28;20032;-55
2022/06/24 01:52:01;;;;;;;9.10;5.55;;;18.50;99.90;;;;;;5091557;28;20024;-52
2022/06/24 01:54:27;;;;;;;6.82;5.70;;;18.60;99.90;;;;;;5091633;28;20020;-54
2022/06/24 01:56:54;;;;;;;7.95;6.07;;;18.60;99.90;;;;;;5091429;28;20402;-54
2022/06/24 01:59:20;;;;;;;7.25;5.65;;;18.70;99.90;;;;;;5091613;28;20051;-54
2022/06/24 02:01:46;;;;;;;9.55;5.65;;;18.70;99.90;;;;;;5091466;28;20099;-54
2022/06/24 02:04:13;;;;;;;7.65;6.07;;;18.80;99.90;;;;;;5091503;28;20429;-54
2022/06/24 02:06:39;;;;;;;10.20;5.65;;;18.80;99.90;;;;;;5091379;28;20020;-52
2022/06/24 02:09:06;;;;;;;9.93;5.43;;;18.80;99.90;;;;;;5091520;28;20058;-51
2022/06/24 02:14:17;;;;;;;10.52;6.13;;;18.70;99.90;;;;;;5091505;28;20081;-52
2022/06/24 02:16:43;;;;;;;8.95;5.95;;;18.70;99.90;;;;;;5091158;28;20028;-53
2022/06/24 02:19:09;;;;;;;15.18;6.13;;;18.70;99.90;;;;;;5091445;28;20058;-51
2022/06/24 02:21:36;;;;;;;11.02;6.15;;;18.70;99.90;;;;;;5091308;28;20099;-51
2022/06/24 02:24:02;;;;;;;12.60;6.72;;;18.80;99.90;;;;;;5090070;28;20029;-51
2022/06/24 02:26:27;;;;;;;10.68;7.07;;;18.90;99.90;;;;;;5091218;28;20085;-54
2022/06/24 02:28:54;;;;;;;12.32;7.72;;;18.90;99.90;;;;;;5091294;28;20024;-52
2022/06/24 02:31:20;;;;;;;12.63;8.65;;;19.00;99.90;;;;;;5091218;28;20038;-53
2022/06/24 02:33:46;;;;;;;11.75;7.10;;;19.10;99.90;;;;;;5091250;28;20060;-52
2022/06/24 02:36:13;;;;;;;10.18;7.55;;;19.20;99.90;;;;;;5091076;28;20463;-51
2022/06/24 02:38:38;;;;;;;11.90;7.90;;;19.20;99.90;;;;;;5091255;28;20028;-52
2022/06/24 02:41:04;;;;;;;11.13;7.70;;;19.20;99.90;;;;;;5091052;28;20044;-54
2022/06/24 02:43:32;;;;;;;11.63;7.57;;;19.30;99.90;;;;;;5092767;28;20071;-53
2022/06/24 02:45:59;;;;;;;9.90;7.40;;;19.30;99.90;;;;;;5095006;28;20028;-54
2022/06/24 02:48:25;;;;;;;13.00;8.10;;;19.20;99.90;;;;;;5094680;28;20020;-53
2022/06/24 02:50:53;;;;;;;19.20;8.13;;;19.10;99.90;;;;;;5094892;28;20111;-54
2022/06/24 02:53:20;;;;;;;17.27;8.18;;;19.10;99.90;;;;;;5094627;28;20020;-55
2022/06/24 02:55:52;;;;;;;17.17;8.80;;;18.90;99.90;;;;;;5094748;28;20055;-53
2022/06/24 02:58:18;;;;;;;13.48;8.05;;;18.90;99.90;;;;;;5093171;28;20024;-56
2022/06/24 03:00:44;;;;;;;14.52;9.27;;;18.90;99.90;;;;;;5094782;28;20598;-54
2022/06/24 03:03:17;;;;;;;15.68;9.65;;;18.80;99.90;;;;;;5094384;28;20111;-51
2022/06/24 03:05:43;;;;;;;14.63;8.85;;;18.70;99.90;;;;;;5094591;28;20016;-53
2022/06/24 03:08:11;;;;;;;14.32;9.13;;;18.70;99.90;;;;;;5094360;28;20020;-55
2022/06/24 03:10:36;;;;;;;14.93;10.63;;;18.60;99.90;;;;;;5094441;28;20413;-51
2022/06/24 03:13:02;;;;;;;14.38;9.48;;;18.60;99.90;;;;;;5094556;28;20024;-54
2022/06/24 03:15:29;;;;;;;16.80;9.43;;;18.60;99.90;;;;;;5094007;28;20491;-54
2022/06/24 03:17:55;;;;;;;9.52;7.95;;;18.60;99.90;;;;;;5093131;28;20059;-56
2022/06/24 03:20:21;;;;;;;10.60;6.93;;;18.70;99.90;;;;;;5092578;28;20055;-55
2022/06/24 03:22:47;;;;;;;10.88;7.72;;;18.80;99.90;;;;;;5094290;28;20169;-54
2022/06/24 03:25:12;;;;;;;9.55;7.78;;;18.80;99.90;;;;;;5094074;28;20126;-52
2022/06/24 03:27:38;;;;;;;12.75;7.88;;;18.90;99.90;;;;;;5094092;28;20024;-54
2022/06/24 03:30:06;;;;;;;18.63;8.35;;;18.80;99.90;;;;;;5094166;28;20031;-55
2022/06/24 03:32:32;;;;;;;14.30;6.97;;;18.80;99.90;;;;;;5093817;28;20031;-55
2022/06/24 03:34:58;;;;;;;18.20;7.75;;;18.80;99.90;;;;;;5093966;28;20028;-54
2022/06/24 03:37:24;;;;;;;10.45;8.30;;;18.80;99.90;;;;;;5093785;28;20034;-54
2022/06/24 03:39:50;;;;;;;20.35;9.95;;;18.80;99.90;;;;;;5093758;28;20382;-53
2022/06/24 03:42:15;;;;;;;19.10;8.23;;;18.80;99.90;;;;;;5093523;28;20368;-55
2022/06/24 03:44:41;;;;;;;15.65;8.85;;;18.80;99.90;;;;;;5093930;28;20020;-54
2022/06/24 03:47:07;;;;;;;11.02;8.93;;;18.80;99.90;;;;;;5093578;28;20028;-55
2022/06/24 03:49:33;;;;;;;11.77;8.60;;;18.70;99.90;;;;;;5093452;28;20023;-51
2022/06/24 03:51:58;;;;;;;14.45;9.30;;;18.70;99.90;;;;;;5093666;28;20111;-55
2022/06/24 03:54:24;;;;;;;14.80;8.27;;;18.70;99.90;;;;;;5093140;28;20487;-52
2022/06/24 03:56:50;;;;;;;17.45;7.80;;;18.70;99.90;;;;;;5093480;28;20024;-54
2022/06/24 03:59:16;;;;;;;14.75;7.20;;;18.70;99.90;;;;;;5093529;28;20023;-50
2022/06/24 04:01:41;;;;;;;7.43;6.50;;;18.70;99.90;;;;;;5093168;28;20078;-52
2022/06/24 04:04:07;;;;;;;14.73;7.57;;;18.70;99.90;;;;;;5093260;28;20089;-51
2022/06/24 04:06:33;;;;;;;12.18;6.13;;;18.70;99.90;;;;;;5093281;28;20032;-55
2022/06/24 04:08:58;;;;;;;14.60;6.18;;;18.70;99.90;;;;;;5093580;28;20032;-54
2022/06/24 04:11:24;;;;;;;11.90;5.70;;;18.80;99.90;;;;;;5091985;28;20032;-54
2022/06/24 04:13:50;;;;;;;7.57;5.68;;;18.80;99.90;;;;;;5093302;28;20111;-55
2022/06/24 04:16:15;;;;;;;8.65;5.25;;;18.80;99.90;;;;;;5092902;28;20032;-56
2022/06/24 04:18:41;;;;;;;10.40;5.40;;;18.80;99.90;;;;;;5093161;28;20020;-56
2022/06/24 04:21:17;;;;;;;15.43;5.55;;;18.70;99.90;;;;;;5093194;28;20027;-56
2022/06/24 04:23:45;;;;;;;7.57;4.18;;;18.70;99.90;;;;;;5092990;28;20137;-56
2022/06/24 04:26:11;;;;;;;7.25;4.55;;;18.70;99.90;;;;;;5093171;28;20035;-56
2022/06/24 04:28:38;;;;;;;14.48;3.50;;;18.80;99.90;;;;;;5092919;28;20024;-55
2022/06/24 04:31:04;;;;;;;4.25;3.20;;;18.70;99.90;;;;;;5091360;28;20089;-55
2022/06/24 04:33:30;;;;;;;8.85;2.80;;;18.80;99.90;;;;;;5092660;28;20032;-55
2022/06/24 04:35:55;;;;;;;10.35;2.70;;;18.80;99.90;;;;;;5092780;28;20337;-55
2022/06/24 04:38:21;;;;;;;8.50;2.28;;;18.90;99.90;;;;;;5092582;28;20111;-54
2022/06/24 04:40:47;;;;;;;8.25;2.03;;;18.80;99.90;;;;;;5092635;28;20052;-56
2022/06/24 04:43:12;;;;;;;10.20;3.33;;;18.80;99.90;;;;;;5092521;28;20065;-52
2022/06/24 04:45:38;;;;;;;6.65;2.97;;;18.80;99.90;;;;;;5092424;28;20053;-53
2022/06/24 04:48:05;;;;;;;5.00;2.20;;;18.80;99.90;;;;;;5091067;28;20025;-51
2022/06/24 04:50:31;;;;;;;5.18;2.53;;;18.90;99.90;;;;;;5090969;28;20063;-51
2022/06/24 04:52:56;;;;;;;3.22;2.00;;;18.90;99.90;;;;;;5091241;28;20114;-53
2022/06/24 04:55:22;;;;;;;4.93;2.10;;;18.80;99.90;;;;;;5091064;28;20020;-53
2022/06/24 04:57:48;;;;;;;3.28;1.58;;;18.80;99.90;;;;;;5091323;28;20368;-54
2022/06/24 05:00:15;;;;;;;10.90;1.77;;;18.90;99.90;;;;;;5090759;28;20338;-50
2022/06/24 05:02:41;;;;;;;3.03;1.58;;;19.00;99.90;;;;;;5090015;28;20032;-51
2022/06/24 05:05:11;;;;;;;2.42;1.70;;;19.00;99.90;;;;;;5089887;28;20145;-55
2022/06/24 05:07:38;;;;;;;3.90;1.73;;;19.10;99.90;;;;;;5090672;28;20028;-54
2022/06/24 05:10:05;;;;;;;5.38;1.60;;;19.10;99.90;;;;;;5091098;28;20035;-53
2022/06/24 05:12:31;;;;;;;5.15;1.60;;;19.20;99.90;;;;;;5090835;28;20134;-55
2022/06/24 05:14:57;;;;;;;4.47;1.80;;;19.20;99.90;;;;;;5090276;28;20063;-52
2022/06/24 05:17:24;;;;;;;12.15;2.47;;;19.20;99.90;;;;;;5091062;28;20028;-53
2022/06/24 05:19:51;;;;;;;3.15;1.73;;;19.30;99.90;;;;;;5090455;28;20119;-55
2022/06/24 05:22:16;;;;;;;2.38;1.20;;;19.30;99.90;;;;;;5090607;28;20169;-54
2022/06/24 05:24:42;;;;;;;8.02;1.90;;;19.40;99.90;;;;;;5090733;28;20081;-53
2022/06/24 05:27:08;;;;;;;4.28;1.73;;;19.50;99.90;;;;;;5090650;28;20031;-53
2022/06/24 05:29:34;;;;;;;10.73;1.73;;;19.50;99.90;;;;;;5090520;28;20063;-54
2022/06/24 05:32:00;;;;;;;4.93;1.58;;;19.70;99.90;;;;;;5090474;28;20032;-53
2022/06/24 05:34:25;;;;;;;7.25;1.55;;;19.90;99.90;;;;;;5090624;28;20442;-51
2022/06/24 05:36:51;;;;;;;7.20;1.50;;;19.90;99.90;;;;;;5090619;28;20186;-54
2022/06/24 05:39:17;;;;;;;7.38;1.52;;;20.10;99.90;;;;;;5090276;28;20034;-54
2022/06/24 05:41:43;;;;;;;6.28;1.48;;;20.20;99.90;;;;;;5090550;28;20502;-54
2022/06/24 05:44:10;;;;;;;5.88;1.40;;;20.30;99.90;;;;;;5087886;28;20193;-53
2022/06/24 05:46:36;;;;;;;4.10;1.73;;;20.20;99.90;;;;;;5090404;28;20024;-55
2022/06/24 05:49:02;;;;;;;3.33;1.25;;;20.20;99.90;;;;;;5090555;28;20020;-53
2022/06/24 05:51:28;;;;;;;8.40;1.40;;;20.10;99.90;;;;;;5090326;28;20027;-52
2022/06/24 05:56:38;;;;;;;14.07;1.73;;;20.10;99.90;;;;;;5090534;28;20081;-51
2022/06/24 05:59:04;;;;;;;4.88;1.70;;;20.30;99.90;;;;;;5090367;28;20391;-55
2022/06/24 06:01:30;;;;;;;3.70;1.42;;;20.40;99.90;;;;;;5090051;28;20051;-52
2022/06/24 06:03:56;;;;;;;6.78;1.38;;;20.40;99.90;;;;;;5090378;28;20024;-52
2022/06/24 06:06:22;;;;;;;5.38;1.50;;;20.50;99.90;;;;;;5090060;28;20097;-55
2022/06/24 06:08:49;;;;;;;5.88;1.20;;;20.40;99.90;;;;;;5090307;28;20059;-52
2022/06/24 06:11:21;;;;;;;5.57;1.55;;;20.60;99.90;;;;;;5090124;28;20047;-54
2022/06/24 06:13:50;;;;;;;5.38;1.65;;;20.70;99.90;;;;;;5090236;28;20028;-51
2022/06/24 06:16:16;;;;;;;2.50;1.20;;;20.80;99.90;;;;;;5090145;28;20312;-54
2022/06/24 06:18:42;;;;;;;5.65;1.00;;;20.70;99.90;;;;;;5094036;28;20020;-51
2022/06/24 06:21:09;;;;;;;3.97;1.40;;;20.80;99.90;;;;;;5094266;28;20012;-54
2022/06/24 06:23:37;;;;;;;4.45;1.23;;;20.80;99.90;;;;;;5094175;28;20073;-52
2022/06/24 06:26:04;;;;;;;5.80;1.00;;;20.80;99.90;;;;;;5094151;28;20107;-54
2022/06/24 06:28:30;;;;;;;2.45;1.50;;;20.90;99.90;;;;;;5093841;28;20059;-54
2022/06/24 06:30:56;;;;;;;4.97;1.20;;;20.80;99.90;;;;;;5093995;28;20492;-55
2022/06/24 06:33:22;;;;;;;9.00;1.17;;;20.90;99.90;;;;;;5093806;28;20024;-55
2022/06/24 06:35:48;;;;;;;5.47;1.75;;;21.30;99.90;;;;;;5093813;28;20082;-54
2022/06/24 06:38:15;;;;;;;3.40;1.30;;;21.50;99.90;;;;;;5093587;28;20494;-54
2022/06/24 06:40:41;;;;;;;3.38;1.35;;;21.70;99.90;;;;;;5093924;28;20468;-55
2022/06/24 06:43:07;;;;;;;6.55;1.70;;;21.70;99.90;;;;;;5093988;28;20031;-54
2022/06/24 06:45:34;;;;;;;2.00;1.13;;;21.80;99.90;;;;;;5093769;28;20076;-55
2022/06/24 06:48:00;;;;;;;2.70;1.00;;;21.70;99.90;;;;;;5093735;28;20016;-54
2022/06/24 06:50:26;;;;;;;6.38;1.30;;;21.60;99.90;;;;;;5093456;28;20016;-55
2022/06/24 06:52:52;;;;;;;4.07;1.10;;;21.70;99.90;;;;;;5093550;28;20493;-53
2022/06/24 06:55:18;;;;;;;4.93;1.10;;;22.10;99.90;;;;;;5093581;28;20024;-53
2022/06/24 06:57:44;;;;;;;4.93;1.27;;;22.20;99.90;;;;;;5093324;28;20032;-54
2022/06/24 07:00:10;;;;;;;9.27;1.13;;;22.30;99.90;;;;;;5093378;28;20012;-55
2022/06/24 07:02:37;;;;;;;6.97;0.95;;;22.00;99.90;;;;;;5092262;28;20074;-53
2022/06/24 07:05:03;;;;;;;4.53;1.05;;;21.80;99.90;;;;;;5093588;28;20107;-56
2022/06/24 07:07:30;;;;;;;4.03;0.90;;;21.90;99.90;;;;;;5093049;28;20099;-53
2022/06/24 07:09:56;;;;;;;4.63;1.20;;;22.10;99.90;;;;;;5093268;28;20454;-54
2022/06/24 07:12:23;;;;;;;5.75;1.20;;;22.20;99.90;;;;;;5091672;28;20028;-51
2022/06/24 07:14:48;;;;;;;6.22;1.55;;;22.00;99.90;;;;;;5093291;28;20024;-52
2022/06/24 07:17:15;;;;;;;4.05;1.10;;;22.00;99.90;;;;;;5092970;28;20392;-54
2022/06/24 07:19:40;;;;;;;2.05;0.90;;;21.80;99.90;;;;;;5093181;28;20074;-53
2022/06/24 07:22:06;;;;;;;2.10;0.98;;;21.70;99.90;;;;;;5093005;28;20028;-54
2022/06/24 07:24:32;;;;;;;2.70;0.80;;;21.70;99.90;;;;;;5092829;28;20020;-54
2022/06/24 07:26:58;;;;;;;4.35;1.15;;;21.80;99.90;;;;;;5092894;28;20032;-54
2022/06/24 07:29:23;;;;;;;2.08;1.00;;;21.90;99.90;;;;;;5092098;28;20411;-53
2022/06/24 07:31:49;;;;;;;1.27;0.70;;;22.30;99.90;;;;;;5092807;28;20244;-52
2022/06/24 07:34:15;;;;;;;2.17;0.55;;;22.30;99.90;;;;;;5091448;28;20063;-54
2022/06/24 07:36:42;;;;;;;5.75;0.90;;;22.40;99.90;;;;;;5092612;28;20027;-52
2022/06/24 07:39:09;;;;;;;3.28;1.10;;;22.70;99.90;;;;;;5091964;28;20328;-54
2022/06/24 07:41:34;;;;;;;4.82;1.30;;;22.90;99.90;;;;;;5092628;28;20035;-54
2022/06/24 07:44:00;;;;;;;5.32;1.38;;;23.20;99.90;;;;;;5092696;28;20024;-53
2022/06/24 07:46:27;;;;;;;5.60;1.08;;;23.30;99.90;;;;;;5092541;28;20027;-53
2022/06/24 07:48:53;;;;;;;7.85;1.10;;;23.40;99.90;;;;;;5092345;28;20486;-57
2022/06/24 07:51:19;;;;;;;4.90;1.38;;;23.20;99.90;;;;;;5093032;28;20032;-55
2022/06/24 07:53:47;;;;;;;6.95;0.85;;;23.00;99.90;;;;;;5093485;28;20032;-56
2022/06/24 07:58:58;;;;;;;2.17;0.95;;;23.10;99.90;;;;;;5093488;28;20031;-51
2022/06/24 08:01:24;;;;;;;2.70;1.05;;;22.60;99.90;;;;;;5090935;28;20471;-53
2022/06/24 08:03:50;;;;;;;3.28;1.10;;;22.90;99.90;;;;;;5092411;28;20023;-51
2022/06/24 08:06:15;;;;;;;3.58;1.30;;;23.10;99.90;;;;;;5091289;28;20020;-53
2022/06/24 08:08:42;;;;;;;3.38;1.10;;;23.10;99.90;;;;;;5092494;28;20042;-52
2022/06/24 08:11:08;;;;;;;4.05;0.90;;;23.50;99.90;;;;;;5093049;28;20112;-52
2022/06/24 08:13:33;;;;;;;3.10;0.82;;;23.40;99.90;;;;;;5093197;28;20047;-50
2022/06/24 08:16:00;;;;;;;3.38;1.13;;;23.60;99.10;;;;;;5093126;28;20490;-53
2022/06/24 08:18:26;;;;;;;2.50;0.70;;;23.50;99.50;;;;;;5093044;28;20078;-51
2022/06/24 08:20:51;;;;;;;1.35;0.82;;;23.80;99.00;;;;;;5093138;28;20418;-49
2022/06/24 08:23:17;;;;;;;5.65;1.38;;;23.50;98.30;;;;;;5092794;28;20099;-50
2022/06/24 08:25:43;;;;;;;4.43;1.30;;;23.80;99.00;;;;;;5093016;28;20426;-51
2022/06/24 08:28:08;;;;;;;3.40;1.10;;;23.40;98.10;;;;;;5093049;28;20028;-53
2022/06/24 08:30:34;;;;;;;10.45;1.33;;;23.50;99.20;;;;;;5092872;28;20031;-50
2022/06/24 08:33:01;;;;;;;5.88;1.10;;;23.40;99.00;;;;;;5092691;28;20020;-50
2022/06/24 08:35:27;;;;;;;2.20;1.00;;;23.80;99.90;;;;;;5092576;28;20437;-52
2022/06/24 08:37:53;;;;;;;6.70;1.00;;;23.80;99.00;;;;;;5092687;28;20032;-50
2022/06/24 08:40:20;;;;;;;5.15;1.30;;;23.40;97.50;;;;;;5091223;28;20085;-50
2022/06/24 08:42:51;;;;;;;2.55;1.17;;;23.40;99.00;;;;;;5092674;28;20020;-52
2022/06/24 08:45:17;;;;;;;2.38;0.80;;;23.10;99.10;;;;;;5092320;28;20015;-51
2022/06/24 08:47:45;;;;;;;4.13;1.33;;;23.30;99.20;;;;;;5092674;28;20468;-50
2022/06/24 08:50:12;;;;;;;6.10;1.90;;;23.60;99.50;;;;;;5092423;28;20145;-53
2022/06/24 08:52:45;;;;;;;4.63;2.10;;;23.50;98.40;;;;;;5091111;28;20534;-50
2022/06/24 08:55:15;;;;;;;9.70;1.40;;;23.60;98.90;;;;;;5092651;28;20028;-54
2022/06/24 08:57:41;;;;;;;3.80;1.30;;;23.60;98.20;;;;;;5078824;28;20032;-50
2022/06/24 09:00:07;;;;;;;6.13;1.20;;;23.70;98.90;;;;;;5071734;28;20242;-51
2022/06/24 09:02:33;;;;;;;3.20;1.02;;;23.80;98.80;;;;;;5071968;28;20029;-52
2022/06/24 09:04:59;;;;;;;5.00;1.02;;;23.80;99.80;;;;;;5071889;28;20020;-53
2022/06/24 09:07:28;;;;;;;3.53;1.23;;;24.00;98.30;;;;;;5071921;28;20046;-51
2022/06/24 09:10:04;;;;;;;2.95;1.45;;;23.80;98.00;;;;;;5072009;28;20028;-51
2022/06/24 09:12:37;;;;;;;3.88;1.40;;;23.90;97.90;;;;;;5071326;28;20080;-54
2022/06/24 09:15:05;;;;;;;4.10;1.70;;;24.30;98.60;;;;;;5071911;28;20499;-54
2022/06/24 09:20:59;;;;;;;2.15;1.00;;;24.40;98.80;;;;;;5069911;28;20097;-53
2022/06/24 09:23:25;;;;;;;2.53;1.20;;;24.70;98.70;;;;;;5071500;28;20028;-51
2022/06/24 09:25:57;;;;;;;7.22;1.70;;;24.70;99.20;;;;;;5071848;28;20473;-53
2022/06/24 09:28:29;;;;;;;5.82;1.35;;;24.60;97.80;;;;;;5071283;28;20028;-51
2022/06/24 09:31:08;;;;;;;3.97;1.25;;;23.90;98.00;;;;;;5071645;28;20023;-50
2022/06/24 09:33:37;;;;;;;6.95;1.75;;;23.80;99.20;;;;;;5071468;28;20028;-51
2022/06/24 09:36:07;;;;;;;3.70;1.25;;;23.90;99.80;;;;;;5071275;28;20027;-51
2022/06/24 09:38:50;;;;;;;4.10;1.20;;;23.90;98.10;;;;;;5071314;28;20464;-67
2022/06/24 09:41:16;;;;;;;4.13;1.33;;;23.80;96.80;;;;;;5069666;28;20076;-54
2022/06/24 09:43:42;;;;;;;4.95;1.45;;;23.90;96.30;;;;;;5071472;28;20059;-52
2022/06/24 09:46:17;;;;;;;6.47;1.40;;;23.50;97.50;;;;;;5071353;28;20036;-55
2022/06/24 09:48:43;;;;;;;5.18;1.40;;;23.80;97.80;;;;;;5071611;28;20032;-53
2022/06/24 09:51:09;;;;;;;7.88;1.60;;;24.20;96.80;;;;;;5071773;28;20028;-52
2022/06/24 09:53:37;;;;;;;3.65;1.40;;;25.00;95.50;;;;;;5077726;28;20367;-55
2022/06/24 09:56:07;;;;;;;5.22;1.45;;;25.20;96.40;;;;;;5077939;28;20023;-52
2022/06/24 09:58:34;;;;;;;5.15;1.30;;;25.50;95.80;;;;;;5076565;28;20077;-54
2022/06/24 10:01:00;;;;;;;5.63;1.30;;;25.60;95.10;;;;;;5077886;28;20425;-52
2022/06/24 10:03:28;;;;;;;7.97;1.27;;;25.30;95.20;;;;;;5077149;28;20369;-54
2022/06/24 10:06:10;;;;;;;9.80;2.65;;;24.90;97.00;;;;;;5077699;28;20412;-54
2022/06/24 10:08:36;;;;;;;8.15;1.90;;;25.30;95.80;;;;;;5077778;28;20024;-53
2022/06/24 10:11:07;;;;;;;6.65;1.35;;;25.20;96.20;;;;;;5077867;28;20028;-54
2022/06/24 10:13:34;;;;;;;5.70;1.40;;;24.90;95.90;;;;;;5077670;28;20032;-53
2022/06/24 10:16:01;;;;;;;2.97;1.27;;;25.00;95.80;;;;;;5077899;28;20102;-55
2022/06/24 10:18:34;;;;;;;7.70;1.60;;;25.00;97.10;;;;;;5077694;28;20021;-53
2022/06/24 10:21:01;;;;;;;5.10;1.42;;;24.70;96.90;;;;;;5077826;28;20021;-53
2022/06/24 10:23:40;;;;;;;3.35;1.02;;;25.10;97.00;;;;;;5077514;28;20115;-52
2022/06/24 10:26:11;;;;;;;9.35;2.10;;;25.00;97.30;;;;;;5072209;28;20029;-52
2022/06/24 10:29:05;;;;;;;4.38;1.33;;;25.60;96.90;;;;;;5084446;28;20036;-54
2022/06/24 10:31:53;;;;;;;7.53;1.60;;;26.30;95.60;;;;;;5076199;28;20442;-55
2022/06/24 10:34:21;;;;;;;1.67;0.98;;;26.50;95.00;;;;;;5084505;28;20016;-51
2022/06/24 10:36:51;;;;;;;6.18;1.27;;;26.40;94.10;;;;;;5085428;28;20953;-52
2022/06/24 10:39:20;;;;;;;5.05;1.20;;;26.70;94.50;;;;;;5084642;28;20032;-53
2022/06/24 10:41:46;;;;;;;11.13;1.90;;;27.00;94.30;;;;;;5085447;28;20040;-51
2022/06/24 10:44:53;;;;;;;7.63;1.30;;;27.00;93.90;;;;;;5084754;28;20043;-53
2022/06/24 10:47:19;;;;;;;3.13;0.93;;;28.00;92.30;;;;;;5081184;28;20056;-55
2022/06/24 10:52:37;;;;;;;6.43;1.73;;;27.80;88.90;;;;;;5085457;28;20043;-54
2022/06/24 10:55:18;;;;;;;10.35;2.10;;;28.00;88.70;;;;;;5087032;28;20455;-51
2022/06/24 10:57:54;;;;;;;9.00;2.28;;;28.30;88.20;;;;;;5087288;28;20042;-55
2022/06/24 11:00:48;;;;;;;7.78;2.03;;;27.80;86.90;;;;;;5069430;27;20384;-52
2022/06/24 11:03:19;;;;;;;;;;;27.50;87.20;;;;;;5078329;28;20123;-54
2022/06/24 11:05:46;;;;;;;4.50;1.38;;;27.10;85.20;;;;;;5083014;28;20007;-55
2022/06/24 11:08:20;;;;;;;8.02;1.80;;;26.80;87.70;;;;;;5083925;28;20028;-51
2022/06/24 11:10:49;;;;;;;6.90;1.65;;;26.70;89.60;;;;;;5083626;28;20024;-52
2022/06/24 11:13:16;;;;;;;8.65;2.47;;;26.70;89.90;;;;;;5083908;28;20036;-52
2022/06/24 11:15:45;;;;;;;11.18;1.70;;;26.80;90.80;;;;;;5082975;28;20111;-54
2022/06/24 11:18:14;;;;;;;9.38;2.05;;;26.50;89.80;;;;;;5082322;28;20429;-51
2022/06/24 11:20:42;;;;;;;14.80;2.25;;;27.10;89.30;;;;;;5083862;28;20438;-51
2022/06/24 11:23:10;;;;;;;8.40;2.33;;;26.70;90.40;;;;;;5083496;28;20093;-54
2022/06/24 11:25:38;;;;;;;12.50;2.80;;;27.20;91.00;;;;;;5083712;28;20046;-51
2022/06/24 11:28:04;;;;;;;61.67;34.67;;;27.30;86.60;;;;;;5074873;28;20098;-53
2022/06/24 11:30:29;;;;;;;10.93;2.17;;;27.00;86.80;;;;;;5062661;28;20032;-54
2022/06/24 11:32:57;;;;;;;9.10;2.00;;;27.40;89.30;;;;;;5081238;28;20025;-53
2022/06/24 11:35:24;;;;;;;12.38;1.95;;;27.90;86.70;;;;;;5082358;28;20371;-55
2022/06/24 11:37:50;;;;;;;3.20;0.98;;;27.80;90.20;;;;;;5081895;28;20028;-51
2022/06/24 11:40:33;;;;;;;6.80;1.55;;;27.50;85.10;;;;;;5080875;28;20071;-52
2022/06/24 11:43:25;;;;;;;7.78;1.17;;;27.40;88.70;;;;;;5081689;28;20034;-52
2022/06/24 11:45:56;;;;;;;5.28;0.95;;;27.70;84.40;;;;;;5080157;28;20449;-50
2022/06/24 11:48:23;;;;;;;4.63;1.40;;;27.70;83.30;;;;;;5078347;28;20169;-52
2022/06/24 11:50:51;;;;;;;7.80;1.30;;;28.30;85.60;;;;;;5080162;28;20028;-52
2022/06/24 11:53:21;;;;;;;7.80;1.05;;;28.40;82.60;;;;;;5080081;28;20028;-55
2022/06/24 11:55:50;;;;;;;5.03;1.50;;;28.70;82.10;;;;;;5080680;28;20020;-50
2022/06/24 11:58:19;;;;;;;3.10;1.08;;;29.00;82.20;;;;;;5082665;28;20094;-51
2022/06/24 12:00:45;;;;;;;3.75;1.23;;;28.90;83.10;;;;;;5081108;28;20028;-54
2022/06/24 12:03:12;;;;;;;10.27;1.98;;;28.50;81.50;;;;;;5079101;28;22783;-53
2022/06/24 12:05:42;;;;;;;5.53;0.80;;;28.90;81.10;;;;;;5069062;28;20016;-51
2022/06/24 12:08:09;;;;;;;5.97;1.33;;;29.20;78.30;;;;;;5080145;28;20032;-53
2022/06/24 12:10:35;;;;;;;5.22;1.25;;;28.90;80.40;;;;;;5080110;28;20054;-53
2022/06/24 12:13:05;;;;;;;8.00;1.48;;;29.20;82.60;;;;;;5080866;28;20016;-54
2022/06/24 12:15:37;;;;;;;5.05;1.08;;;29.60;81.30;;;;;;5079918;28;20093;-52
2022/06/24 12:18:13;;;;;;;4.13;0.85;;;29.40;80.00;;;;;;5081030;28;20078;-55
2022/06/24 12:20:39;;;;;;;6.68;1.40;;;30.00;80.00;;;;;;5080389;28;20059;-54
2022/06/24 12:23:21;;;;;;;6.35;1.23;;;30.00;78.20;;;;;;5088367;28;20020;-52
2022/06/24 12:25:49;;;;;;;7.70;1.20;;;30.80;76.50;;;;;;5088360;28;20143;-55
2022/06/24 12:28:21;;;;;;;9.35;1.77;;;31.20;73.00;;;;;;5088796;28;20060;-55
2022/06/24 12:31:17;;;;;;;3.78;0.70;;;31.80;72.00;;;;;;5087933;28;20399;-54
2022/06/24 12:33:52;;;;;;;7.28;1.50;;;32.10;72.70;;;;;;5087041;28;20040;-56
2022/06/24 12:36:20;;;;;;;3.90;1.15;;;32.20;69.00;;;;;;5086572;28;20036;-54
2022/06/24 12:39:18;;;;;;;7.28;1.42;;;33.00;68.50;;;;;;5086646;28;20081;-56
2022/06/24 12:41:48;;;;;;;8.60;1.20;;;33.60;68.60;;;;;;5086695;28;20052;-55
2022/06/24 12:44:16;;;;;;;5.05;1.13;;;33.50;64.00;;;;;;5088136;28;20016;-54
2022/06/24 12:53:00;;;;;;;4.05;1.30;;;32.90;67.80;;;;;;5087745;28;20067;-56
2022/06/24 12:55:27;;;;;;;6.68;1.20;;;33.50;66.20;;;;;;5080158;28;20044;-56
2022/06/24 12:57:53;;;;;;;8.02;1.60;;;33.60;66.80;;;;;;5087392;28;20472;-57
2022/06/24 13:00:19;;;;;;;6.55;2.08;;;33.70;66.60;;;;;;5087603;28;20031;-55
2022/06/24 13:02:52;;;;;;;4.70;1.33;;;33.20;65.30;;;;;;5087578;28;20024;-56
2022/06/24 13:05:19;;;;;;;8.73;1.63;;;34.20;64.90;;;;;;5087620;28;20115;-57
2022/06/24 13:07:46;;;;;;;5.60;1.13;;;34.00;65.00;;;;;;5087928;28;20027;-56
2022/06/24 13:10:12;;;;;;;8.18;1.30;;;33.90;64.20;;;;;;5088678;28;20020;-56